Time;durP1;ratioP1;P1;durP2;ratioP2;P2;SDS_P1;SDS_P2;PMS_P1;PMS_P2;Temp;Humidity;BMP_temperature;BMP_pressure;BME280_temperature;BME280_humidity;BME280_pressure;Samples;Min_cycle;Max_cycle;Signal;HPM_P1;HPM_P2
2021/07/06 00:02:03;;;;;;;1.80;1.30;;;22.90;82.70;;;;;;5051347;28;20654;-50
2021/07/06 00:04:31;;;;;;;2.40;1.77;;;22.90;82.60;;;;;;5050724;28;20650;-48
2021/07/06 00:06:58;;;;;;;2.40;1.67;;;22.90;82.60;;;;;;5050975;28;20682;-48
2021/07/06 00:09:25;;;;;;;1.73;1.40;;;22.90;82.70;;;;;;5051317;28;20701;-48
2021/07/06 00:11:52;;;;;;;1.93;1.40;;;22.80;82.70;;;;;;5050816;28;20664;-48
2021/07/06 00:14:19;;;;;;;1.93;1.80;;;22.80;82.70;;;;;;5050182;28;21163;-49
2021/07/06 00:16:48;;;;;;;1.90;1.57;;;22.80;82.80;;;;;;5050782;28;20696;-48
2021/07/06 00:19:15;;;;;;;2.17;1.70;;;22.70;82.60;;;;;;5051070;28;20658;-49
2021/07/06 00:21:42;;;;;;;1.93;1.70;;;22.80;82.90;;;;;;5050204;28;20660;-49
2021/07/06 00:24:10;;;;;;;1.43;1.33;;;22.70;83.00;;;;;;5050634;28;20626;-49
2021/07/06 00:26:37;;;;;;;4.63;1.90;;;22.70;83.10;;;;;;5049757;28;21029;-50
2021/07/06 00:29:04;;;;;;;2.10;1.90;;;22.70;83.30;;;;;;5050132;28;20753;-50
2021/07/06 00:31:31;;;;;;;1.93;1.70;;;22.70;83.60;;;;;;5049698;28;20660;-50
2021/07/06 00:34:00;;;;;;;5.17;2.27;;;22.70;83.90;;;;;;5049596;28;20653;-50
2021/07/06 00:36:27;;;;;;;2.50;2.10;;;22.70;84.10;;;;;;5049489;28;20690;-49
2021/07/06 00:38:54;;;;;;;1.60;1.50;;;22.60;84.10;;;;;;5049798;28;20653;-50
2021/07/06 00:41:21;;;;;;;3.10;1.37;;;22.60;84.20;;;;;;5049998;28;20669;-49
2021/07/06 00:43:48;;;;;;;3.70;2.10;;;22.60;84.30;;;;;;5049727;28;21103;-48
2021/07/06 00:46:16;;;;;;;5.17;2.23;;;22.50;85.10;;;;;;5049446;28;20697;-49
2021/07/06 00:48:43;;;;;;;2.10;1.60;;;22.50;84.70;;;;;;5050142;28;20745;-48
2021/07/06 00:51:11;;;;;;;2.20;1.80;;;22.50;84.90;;;;;;5049281;28;20697;-49
2021/07/06 00:53:39;;;;;;;2.10;1.80;;;22.50;85.00;;;;;;5049831;28;20677;-48
2021/07/06 00:56:06;;;;;;;2.30;2.10;;;22.50;85.90;;;;;;5049111;28;20686;-49
2021/07/06 00:58:33;;;;;;;3.40;2.30;;;22.50;86.90;;;;;;5049984;28;20658;-48
2021/07/06 01:01:00;;;;;;;1.90;1.57;;;22.40;87.50;;;;;;5051256;28;20658;-48
2021/07/06 01:03:27;;;;;;;1.93;1.67;;;22.40;88.20;;;;;;5049444;28;20634;-48
2021/07/06 01:05:55;;;;;;;2.70;1.87;;;22.30;88.80;;;;;;5048666;28;20749;-49
2021/07/06 01:08:23;;;;;;;1.47;1.30;;;22.30;88.30;;;;;;5049318;28;21389;-47
2021/07/06 01:10:51;;;;;;;3.10;1.57;;;22.30;88.60;;;;;;5049012;28;20745;-48
2021/07/06 01:13:19;;;;;;;2.50;1.87;;;22.20;88.70;;;;;;5049060;28;20673;-49
2021/07/06 01:15:46;;;;;;;1.97;1.87;;;22.20;89.20;;;;;;5048865;28;20726;-47
2021/07/06 01:18:14;;;;;;;6.10;2.00;;;22.10;89.60;;;;;;5049294;28;21114;-47
2021/07/06 01:20:44;;;;;;;5.77;2.17;;;22.10;90.00;;;;;;5048834;28;20687;-48
2021/07/06 01:23:13;;;;;;;2.43;2.20;;;22.10;90.10;;;;;;5049082;28;20630;-48
2021/07/06 01:25:41;;;;;;;2.30;1.80;;;22.00;90.10;;;;;;5049025;28;21615;-49
2021/07/06 01:28:08;;;;;;;2.60;1.63;;;21.90;90.20;;;;;;5053344;28;21155;-48
2021/07/06 01:30:36;;;;;;;2.40;1.80;;;21.90;90.40;;;;;;5052824;28;20704;-48
2021/07/06 01:33:03;;;;;;;1.93;1.83;;;21.80;90.50;;;;;;5053325;28;20671;-48
2021/07/06 01:35:30;;;;;;;2.70;1.70;;;21.80;90.80;;;;;;5052763;28;20658;-50
2021/07/06 01:37:58;;;;;;;3.27;1.87;;;21.70;90.80;;;;;;5053094;28;20668;-48
2021/07/06 01:40:28;;;;;;;3.87;1.50;;;21.70;90.90;;;;;;5052840;28;20672;-48
2021/07/06 01:42:55;;;;;;;2.80;2.00;;;21.60;90.90;;;;;;5052669;28;20630;-49
2021/07/06 01:45:23;;;;;;;2.87;2.10;;;21.60;91.10;;;;;;5052877;28;20676;-48
2021/07/06 01:47:52;;;;;;;7.20;2.47;;;21.50;91.10;;;;;;5052784;28;20657;-50
2021/07/06 01:50:20;;;;;;;4.60;2.17;;;21.40;91.20;;;;;;5052805;28;20698;-49
2021/07/06 01:52:48;;;;;;;2.17;1.97;;;21.40;91.40;;;;;;5052670;28;20676;-48
2021/07/06 01:55:16;;;;;;;2.40;2.20;;;21.30;91.60;;;;;;5053112;28;20665;-50
2021/07/06 01:57:45;;;;;;;2.50;1.87;;;21.30;91.90;;;;;;5052585;28;20696;-49
2021/07/06 02:00:14;;;;;;;2.13;1.70;;;21.20;92.20;;;;;;5052330;28;20714;-49
2021/07/06 02:02:41;;;;;;;2.60;1.77;;;21.20;92.50;;;;;;5052604;28;20661;-50
2021/07/06 02:05:25;;;;;;;2.40;2.10;;;21.20;92.50;;;;;;5052989;28;20993;-49
2021/07/06 02:07:52;;;;;;;2.63;2.10;;;21.20;92.50;;;;;;5052314;28;20667;-50
2021/07/06 02:10:20;;;;;;;1.83;1.67;;;21.10;92.30;;;;;;5052452;28;20725;-50
2021/07/06 02:12:48;;;;;;;1.90;1.63;;;21.00;92.40;;;;;;5052014;28;20760;-50
2021/07/06 02:15:16;;;;;;;5.40;4.90;;;20.90;92.70;;;;;;5052154;28;21110;-49
2021/07/06 02:17:44;;;;;;;3.33;1.90;;;20.90;93.10;;;;;;5052546;28;20800;-50
2021/07/06 02:20:12;;;;;;;4.63;2.20;;;21.00;93.30;;;;;;5051814;28;20650;-50
2021/07/06 02:22:41;;;;;;;2.00;1.90;;;20.90;93.20;;;;;;5051662;28;21519;-50
2021/07/06 02:25:09;;;;;;;3.83;2.03;;;20.90;93.00;;;;;;5052016;28;20656;-48
2021/07/06 02:27:36;;;;;;;1.60;1.50;;;20.90;92.90;;;;;;5051976;28;20661;-49
2021/07/06 02:30:07;;;;;;;3.57;1.70;;;20.90;93.10;;;;;;5052016;28;20712;-49
2021/07/06 02:32:34;;;;;;;4.03;1.90;;;20.80;93.00;;;;;;5051869;28;20664;-49
2021/07/06 02:35:01;;;;;;;3.10;2.70;;;20.80;93.00;;;;;;5051731;28;20654;-49
2021/07/06 02:37:28;;;;;;;2.23;2.00;;;20.80;93.00;;;;;;5051030;28;20646;-48
2021/07/06 02:39:56;;;;;;;1.70;1.60;;;20.70;93.10;;;;;;5051581;28;21170;-48
2021/07/06 02:42:23;;;;;;;2.63;1.90;;;20.70;93.10;;;;;;5051435;28;20653;-49
2021/07/06 02:44:50;;;;;;;2.27;2.07;;;20.70;93.10;;;;;;5051776;28;20706;-49
2021/07/06 02:47:18;;;;;;;4.73;2.47;;;20.70;93.20;;;;;;5051401;28;20701;-48
2021/07/06 02:49:46;;;;;;;4.63;3.50;;;20.80;93.30;;;;;;5051262;28;20629;-47
2021/07/06 02:52:13;;;;;;;2.40;2.00;;;20.80;93.30;;;;;;5051661;28;20661;-48
2021/07/06 02:54:41;;;;;;;3.83;2.00;;;20.70;93.20;;;;;;5051168;28;20726;-48
2021/07/06 02:57:09;;;;;;;2.50;1.90;;;20.70;93.30;;;;;;5051611;28;20677;-47
2021/07/06 02:59:37;;;;;;;2.33;1.90;;;20.70;93.50;;;;;;5051418;28;20650;-47
2021/07/06 03:02:04;;;;;;;2.47;2.10;;;20.70;93.90;;;;;;5051281;28;20650;-48
2021/07/06 03:04:33;;;;;;;2.37;1.40;;;20.70;93.60;;;;;;5051278;28;21163;-49
2021/07/06 03:07:00;;;;;;;2.50;1.70;;;20.80;93.60;;;;;;5051296;28;20697;-49
2021/07/06 03:09:27;;;;;;;2.50;1.93;;;20.80;93.60;;;;;;5051717;28;21150;-49
2021/07/06 03:11:55;;;;;;;2.13;1.73;;;20.80;93.60;;;;;;5050817;28;20690;-46
2021/07/06 03:14:22;;;;;;;2.10;1.60;;;20.80;93.50;;;;;;5052961;28;20662;-47
2021/07/06 03:16:49;;;;;;;1.47;1.37;;;20.80;93.50;;;;;;5051432;28;20701;-48
2021/07/06 03:19:17;;;;;;;3.43;1.83;;;20.80;93.50;;;;;;5045571;28;21209;-48
2021/07/06 03:21:46;;;;;;;3.13;1.77;;;20.70;93.50;;;;;;5051161;28;20652;-48
2021/07/06 03:24:13;;;;;;;4.60;1.80;;;20.80;93.60;;;;;;5050761;28;20665;-47
2021/07/06 03:26:43;;;;;;;4.60;2.23;;;20.80;93.60;;;;;;5050957;28;20696;-48
2021/07/06 03:29:10;;;;;;;2.10;1.90;;;20.70;93.60;;;;;;5050831;28;20622;-48
2021/07/06 03:31:37;;;;;;;4.13;2.83;;;20.70;93.70;;;;;;5051174;28;20685;-48
2021/07/06 03:34:04;;;;;;;2.63;2.40;;;20.70;93.90;;;;;;5051103;28;20674;-49
2021/07/06 03:36:31;;;;;;;4.90;1.93;;;20.60;93.80;;;;;;5033190;28;21087;-49
2021/07/06 03:39:00;;;;;;;2.77;2.47;;;20.70;93.90;;;;;;5050753;28;20654;-48
2021/07/06 03:41:27;;;;;;;15.13;3.03;;;20.60;93.90;;;;;;5050407;28;20638;-49
2021/07/06 03:43:54;;;;;;;2.67;2.17;;;20.60;94.00;;;;;;5050538;28;20662;-49
2021/07/06 03:46:24;;;;;;;4.67;1.70;;;20.60;94.10;;;;;;5050444;28;20685;-49
2021/07/06 03:48:51;;;;;;;3.27;2.30;;;20.60;94.10;;;;;;5050572;28;20669;-48
2021/07/06 03:51:18;;;;;;;1.90;1.60;;;20.60;94.20;;;;;;5050307;28;20686;-48
2021/07/06 03:53:45;;;;;;;2.10;1.90;;;20.60;94.20;;;;;;5051320;28;20727;-48
2021/07/06 03:56:14;;;;;;;3.10;2.80;;;20.60;94.10;;;;;;5050580;28;20657;-48
2021/07/06 03:58:41;;;;;;;3.50;2.03;;;20.60;94.00;;;;;;5050829;28;21078;-49
2021/07/06 04:01:08;;;;;;;2.53;2.33;;;20.50;94.10;;;;;;5050020;28;20669;-49
2021/07/06 04:03:36;;;;;;;5.27;2.07;;;20.50;94.20;;;;;;5050119;28;20687;-48
2021/07/06 04:06:03;;;;;;;4.60;2.60;;;20.50;94.40;;;;;;5031942;28;20701;-49
2021/07/06 04:08:30;;;;;;;4.17;1.90;;;20.50;94.50;;;;;;5050194;28;20653;-48
2021/07/06 04:10:57;;;;;;;6.20;2.63;;;20.60;94.70;;;;;;5049263;28;20694;-49
2021/07/06 04:13:26;;;;;;;3.20;2.30;;;20.60;94.50;;;;;;5047249;28;20661;-48
2021/07/06 04:15:53;;;;;;;4.20;2.67;;;20.50;94.50;;;;;;5049944;28;20965;-48
2021/07/06 04:18:20;;;;;;;2.00;1.80;;;20.50;94.90;;;;;;5049029;28;20637;-48
2021/07/06 04:20:49;;;;;;;3.03;2.20;;;20.60;94.70;;;;;;5049333;28;20780;-49
2021/07/06 04:23:16;;;;;;;5.03;2.40;;;20.60;94.70;;;;;;5050004;28;20626;-49
2021/07/06 04:25:43;;;;;;;4.20;2.23;;;20.60;94.80;;;;;;5049579;28;20708;-49
2021/07/06 04:28:10;;;;;;;6.53;2.67;;;20.60;95.00;;;;;;5050017;28;20670;-49
2021/07/06 04:30:39;;;;;;;2.07;1.90;;;20.60;95.00;;;;;;5049292;28;20615;-47
2021/07/06 04:33:09;;;;;;;5.40;2.77;;;20.60;94.90;;;;;;5050245;28;20653;-48
2021/07/06 04:35:36;;;;;;;2.30;2.10;;;20.60;95.00;;;;;;5049288;28;20641;-48
2021/07/06 04:38:04;;;;;;;2.40;2.20;;;20.60;95.00;;;;;;5049871;28;20704;-49
2021/07/06 04:40:31;;;;;;;3.53;3.03;;;20.60;94.90;;;;;;5049434;28;20657;-47
2021/07/06 04:42:59;;;;;;;1.90;1.80;;;20.60;94.90;;;;;;5049389;28;20660;-47
2021/07/06 04:45:26;;;;;;;6.73;2.40;;;20.70;94.90;;;;;;5049187;28;20630;-49
2021/07/06 04:47:54;;;;;;;2.20;2.10;;;20.70;94.80;;;;;;5049837;28;21021;-48
2021/07/06 04:50:22;;;;;;;4.37;2.50;;;20.70;94.70;;;;;;5049218;28;20667;-47
2021/07/06 04:52:49;;;;;;;2.90;2.40;;;20.70;94.70;;;;;;5049982;28;21123;-49
2021/07/06 04:55:17;;;;;;;3.67;2.13;;;20.70;94.60;;;;;;5049708;28;20633;-49
2021/07/06 04:57:44;;;;;;;2.50;1.93;;;20.80;94.80;;;;;;5048954;28;20680;-49
2021/07/06 05:00:12;;;;;;;3.07;2.87;;;20.80;94.80;;;;;;5048351;28;20985;-49
2021/07/06 05:02:39;;;;;;;2.93;2.60;;;20.80;94.60;;;;;;5049105;28;20658;-48
2021/07/06 05:05:09;;;;;;;4.30;1.97;;;20.90;94.60;;;;;;5042739;28;21131;-47
2021/07/06 05:07:37;;;;;;;2.30;2.10;;;20.90;94.50;;;;;;5045762;28;20753;-48
2021/07/06 05:10:04;;;;;;;8.20;2.13;;;20.90;94.50;;;;;;5048541;28;20727;-48
2021/07/06 05:12:31;;;;;;;2.40;1.67;;;21.00;94.40;;;;;;5048623;28;21194;-47
2021/07/06 05:14:58;;;;;;;3.80;1.97;;;21.00;94.20;;;;;;5048198;28;20646;-48
2021/07/06 05:17:26;;;;;;;2.93;2.53;;;21.00;94.10;;;;;;5048826;28;20693;-49
2021/07/06 05:19:53;;;;;;;3.07;2.37;;;21.10;94.30;;;;;;5047995;28;20627;-48
2021/07/06 05:22:22;;;;;;;4.03;2.50;;;21.10;94.30;;;;;;5048661;28;20661;-47
2021/07/06 05:24:49;;;;;;;3.10;2.43;;;21.10;94.40;;;;;;5048825;28;20710;-49
2021/07/06 05:27:16;;;;;;;5.63;2.30;;;21.10;94.40;;;;;;5049160;28;20720;-49
2021/07/06 05:29:44;;;;;;;3.10;2.60;;;21.10;94.40;;;;;;5049484;28;20954;-50
2021/07/06 05:32:11;;;;;;;3.50;2.27;;;21.10;94.40;;;;;;5048414;28;20690;-50
2021/07/06 05:34:38;;;;;;;7.10;2.73;;;21.10;94.40;;;;;;5049323;28;21119;-50
2021/07/06 05:37:05;;;;;;;4.90;3.50;;;21.10;94.50;;;;;;5048646;28;21266;-49
2021/07/06 05:39:34;;;;;;;6.00;3.20;;;21.20;94.50;;;;;;5048858;28;20654;-50
2021/07/06 05:42:04;;;;;;;6.93;2.70;;;21.20;94.30;;;;;;5049244;28;21463;-48
2021/07/06 05:44:31;;;;;;;4.27;1.93;;;21.30;94.20;;;;;;5048835;28;20665;-50
2021/07/06 05:46:58;;;;;;;4.00;2.47;;;21.30;94.00;;;;;;5048705;28;20686;-49
2021/07/06 05:49:25;;;;;;;5.03;2.90;;;21.40;94.10;;;;;;5049361;28;20669;-49
2021/07/06 05:51:53;;;;;;;5.40;3.43;;;21.40;94.10;;;;;;5048852;28;21072;-48
2021/07/06 05:54:20;;;;;;;5.93;3.83;;;21.40;94.10;;;;;;5049004;28;20765;-50
2021/07/06 05:56:48;;;;;;;9.07;6.10;;;21.40;94.10;;;;;;5048882;28;20674;-49
2021/07/06 05:59:16;;;;;;;16.43;6.90;;;21.50;94.10;;;;;;5048491;28;20634;-48
2021/07/06 06:01:43;;;;;;;13.47;8.70;;;21.50;94.10;;;;;;5041163;28;20646;-48
2021/07/06 06:04:10;;;;;;;21.13;9.50;;;21.50;94.00;;;;;;5062186;28;21252;-48
2021/07/06 06:06:37;;;;;;;13.90;7.30;;;21.50;93.90;;;;;;5066054;28;20672;-48
2021/07/06 06:09:04;;;;;;;14.83;7.40;;;21.50;94.00;;;;;;5049360;28;21183;-48
2021/07/06 06:11:32;;;;;;;11.03;6.20;;;21.50;94.00;;;;;;5049465;28;20621;-48
2021/07/06 06:14:00;;;;;;;8.20;4.47;;;21.50;94.00;;;;;;5052769;28;20637;-49
2021/07/06 06:16:28;;;;;;;5.13;4.13;;;21.60;94.10;;;;;;5052914;28;20654;-48
2021/07/06 06:18:55;;;;;;;6.77;3.97;;;21.60;93.80;;;;;;5052939;28;20629;-48
2021/07/06 06:21:23;;;;;;;5.93;3.53;;;21.70;93.60;;;;;;5052333;28;20626;-50
2021/07/06 06:23:50;;;;;;;5.80;3.60;;;21.70;93.50;;;;;;5052233;28;20641;-50
2021/07/06 06:26:17;;;;;;;3.73;3.30;;;21.70;93.50;;;;;;5052253;28;20731;-50
2021/07/06 06:28:45;;;;;;;5.70;2.87;;;21.70;93.40;;;;;;5052614;28;20751;-50
2021/07/06 06:31:13;;;;;;;3.90;2.70;;;21.70;93.30;;;;;;5052418;28;20687;-48
2021/07/06 06:33:41;;;;;;;3.60;2.60;;;21.60;93.20;;;;;;5052777;28;20690;-50
2021/07/06 06:36:08;;;;;;;3.70;2.93;;;21.60;93.30;;;;;;5051566;28;20693;-47
2021/07/06 06:38:35;;;;;;;4.57;2.90;;;21.60;93.50;;;;;;5052035;28;20928;-47
2021/07/06 06:41:03;;;;;;;3.87;2.83;;;21.60;93.90;;;;;;5052096;28;20651;-48
2021/07/06 06:43:30;;;;;;;5.10;3.40;;;21.60;94.00;;;;;;5052527;28;20610;-49
2021/07/06 06:45:57;;;;;;;4.93;2.63;;;21.60;94.00;;;;;;5039485;28;20674;-48
2021/07/06 06:48:26;;;;;;;6.70;3.30;;;21.60;94.40;;;;;;5049479;28;20626;-49
2021/07/06 06:50:53;;;;;;;5.30;3.17;;;21.60;95.00;;;;;;5045787;28;20658;-48
2021/07/06 06:53:21;;;;;;;4.40;3.53;;;21.60;95.30;;;;;;5044840;28;20685;-49
2021/07/06 06:55:48;;;;;;;3.23;2.53;;;21.70;95.60;;;;;;5044571;28;20698;-51
2021/07/06 06:58:15;;;;;;;6.83;3.40;;;21.70;95.50;;;;;;5042675;28;20662;-49
2021/07/06 07:00:43;;;;;;;5.93;3.20;;;21.80;95.70;;;;;;5043798;28;20661;-47
2021/07/06 07:03:10;;;;;;;3.10;2.60;;;21.80;95.90;;;;;;5050232;28;20667;-48
2021/07/06 07:05:39;;;;;;;3.40;3.10;;;21.90;95.80;;;;;;5050471;28;20871;-50
2021/07/06 07:08:06;;;;;;;2.37;2.17;;;21.90;95.90;;;;;;5051286;28;20660;-49
2021/07/06 07:10:34;;;;;;;5.10;2.53;;;21.90;96.20;;;;;;5050669;28;21218;-50
2021/07/06 07:13:01;;;;;;;2.90;2.47;;;22.00;95.90;;;;;;5052274;28;20719;-51
2021/07/06 07:15:29;;;;;;;2.67;2.20;;;22.00;96.00;;;;;;5051061;28;20637;-51
2021/07/06 07:17:57;;;;;;;3.30;2.00;;;22.10;95.90;;;;;;5051804;28;20622;-50
2021/07/06 07:20:24;;;;;;;4.30;2.33;;;22.10;94.30;;;;;;5051198;28;20954;-51
2021/07/06 07:22:53;;;;;;;12.17;2.70;;;22.00;94.30;;;;;;5050122;28;20657;-51
2021/07/06 07:25:21;;;;;;;3.60;2.33;;;21.90;94.50;;;;;;5049466;28;21147;-51
2021/07/06 07:27:48;;;;;;;2.20;1.83;;;21.90;94.50;;;;;;5051676;28;20626;-49
2021/07/06 07:30:17;;;;;;;2.93;2.50;;;21.80;94.80;;;;;;5051642;28;20688;-50
2021/07/06 07:32:44;;;;;;;2.43;2.23;;;21.80;94.50;;;;;;5051448;28;20664;-50
2021/07/06 07:35:12;;;;;;;2.57;1.90;;;21.90;94.10;;;;;;5050853;28;21207;-50
2021/07/06 07:37:40;;;;;;;4.90;2.47;;;21.90;94.20;;;;;;5046095;28;20708;-50
2021/07/06 07:40:09;;;;;;;2.87;2.60;;;21.90;94.60;;;;;;5048020;28;20647;-49
2021/07/06 07:42:36;;;;;;;3.53;3.23;;;21.90;94.60;;;;;;5042815;28;20622;-50
2021/07/06 07:45:04;;;;;;;2.37;2.17;;;21.90;95.10;;;;;;5049700;28;20661;-50
2021/07/06 07:47:31;;;;;;;3.00;2.43;;;21.90;94.90;;;;;;5049882;28;20697;-50
2021/07/06 07:49:59;;;;;;;5.27;3.10;;;21.70;95.30;;;;;;5050206;28;21230;-50
2021/07/06 07:52:26;;;;;;;6.80;3.20;;;21.70;95.90;;;;;;5050677;28;20697;-50
2021/07/06 07:54:53;;;;;;;3.57;2.90;;;21.60;96.00;;;;;;5050320;28;20646;-49
2021/07/06 07:57:25;;;;;;;2.83;2.63;;;21.50;96.30;;;;;;5050483;28;20781;-49
2021/07/06 07:59:52;;;;;;;4.33;2.93;;;21.40;96.50;;;;;;5050314;28;21200;-51
2021/07/06 08:02:19;;;;;;;4.20;3.83;;;21.30;97.00;;;;;;5050436;28;20680;-55
2021/07/06 08:04:47;;;;;;;3.63;2.90;;;21.30;97.40;;;;;;5051259;28;20684;-50
2021/07/06 08:07:14;;;;;;;6.80;4.03;;;21.20;97.60;;;;;;5031746;28;20668;-49
2021/07/06 08:09:41;;;;;;;4.03;3.50;;;21.20;97.70;;;;;;5049433;28;20634;-50
2021/07/06 08:12:09;;;;;;;4.43;3.30;;;21.10;97.70;;;;;;5050386;28;20665;-50
2021/07/06 08:14:38;;;;;;;4.60;2.90;;;21.10;97.80;;;;;;5050587;28;20792;-50
2021/07/06 08:17:05;;;;;;;3.77;3.47;;;21.10;97.80;;;;;;5048413;28;20686;-50
2021/07/06 08:19:32;;;;;;;4.90;3.57;;;21.10;97.90;;;;;;5049906;28;20661;-49
2021/07/06 08:22:00;;;;;;;3.47;3.17;;;21.10;98.10;;;;;;5050231;28;21137;-50
2021/07/06 08:24:27;;;;;;;6.10;4.50;;;21.10;98.10;;;;;;5050101;28;20657;-51
2021/07/06 08:26:54;;;;;;;6.10;4.00;;;21.10;98.20;;;;;;5049098;28;20693;-50
2021/07/06 08:29:23;;;;;;;3.70;3.40;;;21.10;98.30;;;;;;5049515;28;20681;-50
2021/07/06 08:31:52;;;;;;;7.30;4.57;;;21.10;98.40;;;;;;5050120;28;21192;-50
2021/07/06 08:34:19;;;;;;;4.33;3.90;;;21.10;98.60;;;;;;5050031;28;20673;-51
2021/07/06 08:36:47;;;;;;;3.97;3.60;;;21.00;98.80;;;;;;5049247;28;20685;-51
2021/07/06 08:39:14;;;;;;;19.53;5.50;;;21.00;99.20;;;;;;5049732;28;20640;-51
2021/07/06 08:41:42;;;;;;;7.60;4.23;;;20.90;99.30;;;;;;5050088;28;20711;-51
2021/07/06 08:44:09;;;;;;;5.13;4.47;;;20.80;99.40;;;;;;5049563;28;21123;-49
2021/07/06 08:46:37;;;;;;;5.60;4.00;;;20.80;99.60;;;;;;5047661;28;20697;-49
2021/07/06 08:49:05;;;;;;;5.17;3.70;;;20.80;99.80;;;;;;5048806;28;20642;-50
2021/07/06 08:51:33;;;;;;;4.57;3.27;;;20.80;99.70;;;;;;5048717;28;20665;-49
2021/07/06 08:54:00;;;;;;;4.30;3.90;;;20.80;99.90;;;;;;5049277;28;20693;-50
2021/07/06 08:56:33;;;;;;;3.77;3.47;;;20.70;99.90;;;;;;5049252;28;20677;-51
2021/07/06 08:59:01;;;;;;;4.57;4.00;;;20.70;99.90;;;;;;5049394;28;20679;-50
2021/07/06 09:01:29;;;;;;;5.37;4.80;;;20.80;99.90;;;;;;5050323;28;20998;-49
2021/07/06 09:03:57;;;;;;;7.60;5.10;;;20.80;99.90;;;;;;5049580;28;21178;-50
2021/07/06 09:06:26;;;;;;;5.10;4.70;;;20.80;99.90;;;;;;5049738;28;20764;-49
2021/07/06 09:09:10;;;;;;;6.17;4.93;;;20.80;99.90;;;;;;5048252;28;20633;-50
2021/07/06 09:11:45;;;;;;;5.97;4.17;;;20.90;99.90;;;;;;5047994;28;20661;-50
2021/07/06 09:14:12;;;;;;;5.63;5.23;;;20.90;99.90;;;;;;5042845;28;20688;-49
2021/07/06 09:16:39;;;;;;;5.70;5.13;;;20.90;99.90;;;;;;5049114;28;20697;-50
2021/07/06 09:19:17;;;;;;;5.50;5.00;;;21.00;99.90;;;;;;5048900;28;20622;-50
2021/07/06 09:21:45;;;;;;;6.70;4.53;;;21.00;99.90;;;;;;5048207;28;20629;-50
2021/07/06 09:24:23;;;;;;;5.50;5.10;;;20.90;99.90;;;;;;5048737;28;20650;-50
2021/07/06 09:26:50;;;;;;;8.90;7.90;;;20.90;99.90;;;;;;5047651;28;20814;-50
2021/07/06 09:29:22;;;;;;;8.10;5.60;;;20.90;99.90;;;;;;5049410;28;20637;-50
2021/07/06 09:31:49;;;;;;;5.70;4.60;;;20.90;99.90;;;;;;5048447;28;21153;-50
2021/07/06 09:34:17;;;;;;;8.27;4.17;;;20.90;99.90;;;;;;5048794;28;20688;-51
2021/07/06 09:36:46;;;;;;;4.37;4.00;;;21.00;99.90;;;;;;5049335;28;20682;-51
2021/07/06 09:39:18;;;;;;;4.30;3.57;;;20.90;99.90;;;;;;5048629;28;20622;-51
2021/07/06 09:41:54;;;;;;;3.47;2.70;;;20.90;99.90;;;;;;5049087;28;20661;-51
2021/07/06 09:44:26;;;;;;;3.30;3.00;;;20.90;99.90;;;;;;5048519;28;20653;-49
2021/07/06 09:46:58;;;;;;;4.40;3.57;;;20.90;99.90;;;;;;5049219;28;21272;-49
2021/07/06 09:49:26;;;;;;;3.30;3.00;;;20.90;99.90;;;;;;5053200;28;20654;-50
2021/07/06 09:51:55;;;;;;;4.23;3.00;;;20.90;99.90;;;;;;5052729;28;20708;-50
2021/07/06 09:54:26;;;;;;;4.93;2.47;;;20.90;99.90;;;;;;5051994;28;20746;-50
2021/07/06 09:56:54;;;;;;;3.70;2.50;;;21.00;99.90;;;;;;5051392;28;21231;-50
2021/07/06 09:59:22;;;;;;;4.10;2.53;;;21.00;99.90;;;;;;5053255;28;20656;-50
2021/07/06 10:01:53;;;;;;;4.33;2.57;;;21.10;99.90;;;;;;5052405;28;21204;-50
2021/07/06 10:04:21;;;;;;;1.57;1.47;;;21.10;99.90;;;;;;5052094;28;21021;-50
2021/07/06 10:06:48;;;;;;;4.83;1.77;;;21.10;99.90;;;;;;5052351;28;20669;-51
2021/07/06 10:09:17;;;;;;;1.63;1.00;;;21.10;99.50;;;;;;5052736;28;21178;-50
2021/07/06 10:11:45;;;;;;;1.90;1.17;;;21.10;99.30;;;;;;5052608;28;20626;-49
2021/07/06 10:14:12;;;;;;;1.57;1.37;;;21.10;99.00;;;;;;5052683;28;21242;-51
2021/07/06 10:16:39;;;;;;;2.07;0.97;;;21.10;99.00;;;;;;5052473;28;20705;-50
2021/07/06 10:19:07;;;;;;;1.57;1.47;;;21.10;98.90;;;;;;5051718;28;20618;-50
2021/07/06 10:21:35;;;;;;;0.80;0.80;;;21.10;98.60;;;;;;5052019;28;20662;-50
2021/07/06 10:24:04;;;;;;;1.00;0.90;;;21.10;98.50;;;;;;5052503;28;20683;-50
2021/07/06 10:26:34;;;;;;;1.83;1.40;;;21.10;98.50;;;;;;5051596;28;20707;-53
2021/07/06 10:29:02;;;;;;;1.40;1.17;;;21.10;98.60;;;;;;5052228;28;20675;-49
2021/07/06 10:31:30;;;;;;;1.80;1.30;;;21.10;98.70;;;;;;5052138;28;20661;-49
2021/07/06 10:33:58;;;;;;;1.10;1.00;;;21.10;98.60;;;;;;5052642;28;20685;-47
2021/07/06 10:36:38;;;;;;;1.03;0.90;;;21.10;98.50;;;;;;5052369;28;20689;-49
2021/07/06 10:39:06;;;;;;;1.60;1.00;;;21.10;98.60;;;;;;5052375;28;20628;-49
2021/07/06 10:41:54;;;;;;;1.80;1.33;;;21.20;98.90;;;;;;5051700;28;20911;-49
2021/07/06 10:44:32;;;;;;;2.30;1.20;;;21.10;98.80;;;;;;5051794;28;20682;-51
2021/07/06 10:46:59;;;;;;;3.43;1.00;;;21.10;98.90;;;;;;5052129;28;21273;-49
2021/07/06 10:49:32;;;;;;;2.03;1.50;;;21.10;99.00;;;;;;5052228;28;20657;-49
2021/07/06 10:52:01;;;;;;;1.60;1.17;;;21.10;98.90;;;;;;5051717;28;21033;-48
2021/07/06 10:54:30;;;;;;;2.47;1.23;;;21.10;99.00;;;;;;5051967;28;20701;-50
2021/07/06 10:57:00;;;;;;;1.90;1.30;;;21.10;99.10;;;;;;5051250;28;20693;-49
2021/07/06 10:59:27;;;;;;;2.10;1.40;;;21.10;99.00;;;;;;5050160;28;20625;-48
2021/07/06 11:01:59;;;;;;;1.33;1.07;;;21.20;99.60;;;;;;5051701;28;20626;-50
2021/07/06 11:05:02;;;;;;;1.40;1.30;;;21.20;99.50;;;;;;5050926;28;20649;-47
2021/07/06 11:07:58;;;;;;;2.07;1.00;;;21.30;99.00;;;;;;5044333;28;20984;-47
2021/07/06 11:10:38;;;;;;;2.17;1.00;;;21.30;99.20;;;;;;5051584;28;20626;-48
2021/07/06 11:13:14;;;;;;;1.80;1.47;;;21.30;99.00;;;;;;5033475;28;20629;-48
2021/07/06 11:15:42;;;;;;;3.20;1.50;;;21.30;99.00;;;;;;5051477;28;20674;-48
2021/07/06 11:18:10;;;;;;;4.83;1.40;;;21.30;99.00;;;;;;5051804;28;20634;-50
2021/07/06 11:20:40;;;;;;;5.57;1.47;;;21.30;99.00;;;;;;5051580;28;20665;-50
2021/07/06 11:23:08;;;;;;;1.33;1.23;;;21.40;98.90;;;;;;5051075;28;20657;-49
2021/07/06 11:25:43;;;;;;;1.13;1.00;;;21.30;98.90;;;;;;5050698;28;20642;-50
2021/07/06 11:28:12;;;;;;;2.83;1.30;;;21.30;99.10;;;;;;5050849;28;20723;-49
2021/07/06 11:30:45;;;;;;;1.10;0.83;;;21.20;99.40;;;;;;5050685;28;20645;-49
2021/07/06 11:33:13;;;;;;;2.23;1.03;;;21.30;99.30;;;;;;5057324;28;20622;-48
2021/07/06 11:35:41;;;;;;;1.97;1.20;;;21.30;99.40;;;;;;5050635;28;20665;-48
2021/07/06 11:38:10;;;;;;;2.67;1.80;;;21.30;99.60;;;;;;5051154;28;20645;-49
2021/07/06 11:40:38;;;;;;;2.60;1.57;;;21.40;99.90;;;;;;5050905;28;20830;-50
2021/07/06 11:43:05;;;;;;;1.60;1.20;;;21.50;99.90;;;;;;5051437;28;20658;-49
2021/07/06 11:45:32;;;;;;;1.20;1.10;;;21.50;99.90;;;;;;5050968;28;21163;-48
2021/07/06 11:48:10;;;;;;;2.13;1.40;;;21.60;99.70;;;;;;5051036;28;20769;-49
2021/07/06 11:50:37;;;;;;;4.07;1.90;;;21.60;99.80;;;;;;5050826;28;20657;-49
2021/07/06 11:53:05;;;;;;;2.13;1.87;;;21.60;99.90;;;;;;5050597;28;20626;-49
2021/07/06 11:55:33;;;;;;;1.67;1.47;;;21.70;99.90;;;;;;5050005;28;20692;-49
2021/07/06 11:58:01;;;;;;;2.60;1.47;;;21.70;99.60;;;;;;5050141;28;20734;-49
2021/07/06 12:00:29;;;;;;;3.00;2.37;;;21.80;99.70;;;;;;5050036;28;20651;-49
2021/07/06 12:03:25;;;;;;;1.60;1.47;;;21.80;99.30;;;;;;5050494;28;20622;-49
2021/07/06 12:05:54;;;;;;;2.40;2.20;;;21.70;99.30;;;;;;5029836;28;21015;-49
2021/07/06 12:08:22;;;;;;;2.80;2.13;;;21.70;99.20;;;;;;5039188;28;21111;-50
2021/07/06 12:11:08;;;;;;;2.70;2.07;;;21.60;99.80;;;;;;5049851;28;20665;-49
2021/07/06 12:13:36;;;;;;;3.43;1.97;;;21.60;99.60;;;;;;5050336;28;20669;-49
2021/07/06 12:16:06;;;;;;;3.27;2.97;;;21.50;99.90;;;;;;5050330;28;20716;-50
2021/07/06 12:18:35;;;;;;;2.77;1.97;;;21.50;99.90;;;;;;5050044;28;20633;-49
2021/07/06 12:21:04;;;;;;;2.57;2.37;;;21.50;99.80;;;;;;5050154;28;21001;-49
2021/07/06 12:23:32;;;;;;;2.57;2.10;;;21.50;99.90;;;;;;5049614;28;20672;-49
2021/07/06 12:25:59;;;;;;;4.23;2.20;;;21.50;99.90;;;;;;5050103;28;21095;-48
2021/07/06 12:28:27;;;;;;;3.87;2.67;;;21.40;99.90;;;;;;5049449;28;20783;-49
2021/07/06 12:31:13;;;;;;;5.80;4.03;;;21.40;99.90;;;;;;5049941;28;20641;-49
2021/07/06 12:33:42;;;;;;;2.97;2.67;;;21.40;99.90;;;;;;5049892;28;20660;-49
2021/07/06 12:36:09;;;;;;;3.70;3.40;;;21.30;99.90;;;;;;5050126;28;20705;-49
2021/07/06 12:38:36;;;;;;;4.80;2.70;;;21.20;99.90;;;;;;5050139;28;20662;-47
2021/07/06 12:41:16;;;;;;;4.00;3.20;;;21.20;99.90;;;;;;5049335;28;21155;-48
2021/07/06 12:43:43;;;;;;;3.50;3.20;;;21.20;99.90;;;;;;5050215;28;20656;-50
2021/07/06 12:46:11;;;;;;;3.23;2.90;;;21.10;99.90;;;;;;5049490;28;21249;-53
2021/07/06 12:48:39;;;;;;;2.87;2.67;;;21.10;99.90;;;;;;5049347;28;21269;-50
2021/07/06 12:51:10;;;;;;;3.40;3.10;;;21.10;99.90;;;;;;5048566;28;20672;-50
2021/07/06 12:53:37;;;;;;;3.13;2.93;;;21.10;99.90;;;;;;5049282;28;20650;-49